North Cedar, Iowa
Current Conditions -  °F | °C
As of 10:54 AM on Sunday 23 Nov 2014 (Local Time) from KALO Reporting Station
Haze Haze  
Wind Chill: 50°   Ceiling: 500
Heat Index: 50°   Visibility: 6mi
Dew Point: 50°   Wind: 13mph
Humidity: 100%   Direction: 170°S
Pressure: 29.49"   Gusts: NA
Location:  42.5035°N, 92.4936°W
Report Text: KALO 231654Z 17011KT 6SM BR OVC005 10/10 A2949 RMK AO2 SLP988 T01000100 $
Loading
Personal Weather Stations






























Interactive Weather Map New forecast layout! Learn more

10-Day Weather Forecast

Advertisements
Track Severe Weather on mobile